sensor_id;sensor_type;location;lat;lon;timestamp;pressure;altitude;pressure_sealevel;temperature;humidity
54900;BME280;40801;41.924;25.562;2023-05-29T00:02:05;99154.44;;;17.98;88.45
54900;BME280;40801;41.924;25.562;2023-05-29T00:04:31;99150.50;;;17.95;88.38
54900;BME280;40801;41.924;25.562;2023-05-29T00:06:56;99148.91;;;17.94;88.39
54900;BME280;40801;41.924;25.562;2023-05-29T00:09:21;99151.66;;;17.94;88.35
54900;BME280;40801;41.924;25.562;2023-05-29T00:11:47;99144.59;;;17.93;87.78
54900;BME280;40801;41.924;25.562;2023-05-29T00:14:16;99154.69;;;17.92;88.32
54900;BME280;40801;41.924;25.562;2023-05-29T00:16:45;99151.53;;;17.90;88.43
54900;BME280;40801;41.924;25.562;2023-05-29T00:19:12;99151.97;;;17.92;88.27
54900;BME280;40801;41.924;25.562;2023-05-29T00:21:38;99149.34;;;17.96;88.32
54900;BME280;40801;41.924;25.562;2023-05-29T00:24:03;99148.03;;;17.90;88.49
54900;BME280;40801;41.924;25.562;2023-05-29T00:26:29;99153.47;;;17.90;88.23
54900;BME280;40801;41.924;25.562;2023-05-29T00:28:54;99151.13;;;17.88;88.39
54900;BME280;40801;41.924;25.562;2023-05-29T00:31:19;99144.81;;;17.84;89.43
54900;BME280;40801;41.924;25.562;2023-05-29T00:33:45;99153.84;;;17.88;88.57
54900;BME280;40801;41.924;25.562;2023-05-29T00:36:10;99153.84;;;17.88;88.33
54900;BME280;40801;41.924;25.562;2023-05-29T00:38:36;99161.16;;;17.84;88.59
54900;BME280;40801;41.924;25.562;2023-05-29T00:41:01;99148.53;;;17.76;89.27
54900;BME280;40801;41.924;25.562;2023-05-29T00:43:27;99156.00;;;17.79;88.84
54900;BME280;40801;41.924;25.562;2023-05-29T00:45:53;99157.66;;;17.84;88.60
54900;BME280;40801;41.924;25.562;2023-05-29T00:48:18;99144.22;;;17.75;89.60
54900;BME280;40801;41.924;25.562;2023-05-29T00:50:44;99150.47;;;17.76;89.93
54900;BME280;40801;41.924;25.562;2023-05-29T00:53:10;99149.97;;;17.70;90.06
54900;BME280;40801;41.924;25.562;2023-05-29T00:55:35;99153.56;;;17.74;89.74
54900;BME280;40801;41.924;25.562;2023-05-29T00:58:01;99145.09;;;17.79;89.43
54900;BME280;40801;41.924;25.562;2023-05-29T01:00:27;99153.72;;;17.81;89.07
54900;BME280;40801;41.924;25.562;2023-05-29T01:02:53;99146.31;;;17.82;89.49
54900;BME280;40801;41.924;25.562;2023-05-29T01:05:21;99149.47;;;17.84;88.96
54900;BME280;40801;41.924;25.562;2023-05-29T01:07:47;99146.31;;;17.82;89.38
54900;BME280;40801;41.924;25.562;2023-05-29T01:10:14;99143.59;;;17.82;88.98
54900;BME280;40801;41.924;25.562;2023-05-29T01:20:35;99142.38;;;17.79;89.45
54900;BME280;40801;41.924;25.562;2023-05-29T01:23:27;99147.47;;;17.81;88.98
54900;BME280;40801;41.924;25.562;2023-05-29T01:28:21;99151.03;;;17.85;88.94
54900;BME280;40801;41.924;25.562;2023-05-29T01:30:52;99151.03;;;17.85;88.64
54900;BME280;40801;41.924;25.562;2023-05-29T01:33:19;99142.78;;;17.81;89.15
54900;BME280;40801;41.924;25.562;2023-05-29T01:35:44;99147.25;;;17.70;89.40
54900;BME280;40801;41.924;25.562;2023-05-29T01:38:10;99143.09;;;17.76;89.24
54900;BME280;40801;41.924;25.562;2023-05-29T01:40:35;99136.19;;;17.82;88.43
54900;BME280;40801;41.924;25.562;2023-05-29T01:43:01;99136.78;;;17.72;88.70
54900;BME280;40801;41.924;25.562;2023-05-29T01:45:28;99133.75;;;17.77;88.05
54900;BME280;40801;41.924;25.562;2023-05-29T01:47:54;99132.16;;;17.76;88.25
54900;BME280;40801;41.924;25.562;2023-05-29T01:50:20;99126.94;;;17.68;88.78
54900;BME280;40801;41.924;25.562;2023-05-29T01:52:47;99127.25;;;17.66;88.43
54900;BME280;40801;41.924;25.562;2023-05-29T01:55:12;99140.38;;;17.60;88.89
54900;BME280;40801;41.924;25.562;2023-05-29T01:57:38;99140.22;;;17.53;89.40
54900;BME280;40801;41.924;25.562;2023-05-29T02:00:04;99136.41;;;17.58;88.66
54900;BME280;40801;41.924;25.562;2023-05-29T02:02:40;99135.91;;;17.52;88.90
54900;BME280;40801;41.924;25.562;2023-05-29T02:05:07;99147.09;;;17.47;89.37
54900;BME280;40801;41.924;25.562;2023-05-29T02:07:33;99143.59;;;17.47;89.14
54900;BME280;40801;41.924;25.562;2023-05-29T02:09:59;99140.88;;;17.47;89.41
54900;BME280;40801;41.924;25.562;2023-05-29T02:12:25;99134.13;;;17.41;89.62
54900;BME280;40801;41.924;25.562;2023-05-29T02:14:50;99140.59;;;17.52;89.19
54900;BME280;40801;41.924;25.562;2023-05-29T02:17:16;99141.09;;;17.57;88.86
54900;BME280;40801;41.924;25.562;2023-05-29T02:19:41;99141.88;;;17.58;88.59
54900;BME280;40801;41.924;25.562;2023-05-29T02:22:07;99148.75;;;17.68;88.15
54900;BME280;40801;41.924;25.562;2023-05-29T02:24:33;99150.69;;;17.67;88.18
54900;BME280;40801;41.924;25.562;2023-05-29T02:26:58;99151.56;;;17.71;87.93
54900;BME280;40801;41.924;25.562;2023-05-29T02:29:23;99148.47;;;17.73;87.85
54900;BME280;40801;41.924;25.562;2023-05-29T02:31:49;99154.72;;;17.73;87.90
54900;BME280;40801;41.924;25.562;2023-05-29T02:34:14;99144.59;;;17.74;87.71
54900;BME280;40801;41.924;25.562;2023-05-29T02:36:40;99146.97;;;17.75;87.79
54900;BME280;40801;41.924;25.562;2023-05-29T02:39:05;99153.63;;;17.78;87.54
54900;BME280;40801;41.924;25.562;2023-05-29T02:41:31;99158.66;;;17.76;87.64
54900;BME280;40801;41.924;25.562;2023-05-29T02:43:56;99152.91;;;17.81;87.38
54900;BME280;40801;41.924;25.562;2023-05-29T02:46:22;99152.47;;;17.79;87.52
54900;BME280;40801;41.924;25.562;2023-05-29T02:48:47;99156.06;;;17.83;87.42
54900;BME280;40801;41.924;25.562;2023-05-29T02:51:13;99154.06;;;17.80;87.38
54900;BME280;40801;41.924;25.562;2023-05-29T02:53:39;99170.28;;;17.73;87.93
54900;BME280;40801;41.924;25.562;2023-05-29T02:56:06;99167.19;;;17.74;87.69
54900;BME280;40801;41.924;25.562;2023-05-29T02:58:32;99164.91;;;17.76;87.61
54900;BME280;40801;41.924;25.562;2023-05-29T03:00:58;99168.34;;;17.73;87.56
54900;BME280;40801;41.924;25.562;2023-05-29T03:03:23;99168.00;;;17.75;87.56
54900;BME280;40801;41.924;25.562;2023-05-29T03:05:49;99175.09;;;17.79;87.42
54900;BME280;40801;41.924;25.562;2023-05-29T03:08:14;99183.22;;;17.76;87.58
54900;BME280;40801;41.924;25.562;2023-05-29T03:10:39;99183.63;;;17.78;87.58
54900;BME280;40801;41.924;25.562;2023-05-29T03:13:06;99187.16;;;17.78;87.55
54900;BME280;40801;41.924;25.562;2023-05-29T03:15:31;99190.31;;;17.80;87.56
54900;BME280;40801;41.924;25.562;2023-05-29T03:17:56;99195.78;;;17.80;87.58
54900;BME280;40801;41.924;25.562;2023-05-29T03:20:22;99189.97;;;17.82;87.54
54900;BME280;40801;41.924;25.562;2023-05-29T03:22:48;99187.72;;;17.87;87.22
54900;BME280;40801;41.924;25.562;2023-05-29T03:25:15;99188.44;;;17.84;87.85
54900;BME280;40801;41.924;25.562;2023-05-29T03:27:41;99194.25;;;17.83;88.17
54900;BME280;40801;41.924;25.562;2023-05-29T03:30:07;99195.91;;;17.87;87.63
54900;BME280;40801;41.924;25.562;2023-05-29T03:32:32;99196.44;;;17.93;86.95
54900;BME280;40801;41.924;25.562;2023-05-29T03:34:58;99200.16;;;17.85;87.30
54900;BME280;40801;41.924;25.562;2023-05-29T03:37:23;99203.38;;;17.90;87.13
54900;BME280;40801;41.924;25.562;2023-05-29T03:39:49;99201.44;;;17.91;86.47
54900;BME280;40801;41.924;25.562;2023-05-29T03:42:14;99212.47;;;17.94;86.18
54900;BME280;40801;41.924;25.562;2023-05-29T03:44:41;99201.00;;;17.89;86.32
54900;BME280;40801;41.924;25.562;2023-05-29T03:47:06;99200.75;;;17.94;86.18
54900;BME280;40801;41.924;25.562;2023-05-29T03:49:34;99207.34;;;17.93;86.54
54900;BME280;40801;41.924;25.562;2023-05-29T03:51:59;99213.31;;;17.99;86.09
54900;BME280;40801;41.924;25.562;2023-05-29T03:54:25;99212.59;;;18.02;85.88
54900;BME280;40801;41.924;25.562;2023-05-29T03:56:51;99206.78;;;18.03;85.82
54900;BME280;40801;41.924;25.562;2023-05-29T03:59:16;99200.09;;;18.01;85.69
54900;BME280;40801;41.924;25.562;2023-05-29T04:01:41;99206.00;;;18.03;85.46
54900;BME280;40801;41.924;25.562;2023-05-29T04:04:07;99189.63;;;18.03;86.20
54900;BME280;40801;41.924;25.562;2023-05-29T04:06:32;99190.91;;;18.09;85.68
54900;BME280;40801;41.924;25.562;2023-05-29T04:08:58;99186.97;;;18.06;85.96
54900;BME280;40801;41.924;25.562;2023-05-29T04:11:23;99188.97;;;18.09;86.06
54900;BME280;40801;41.924;25.562;2023-05-29T04:13:49;99191.09;;;18.19;85.85
54900;BME280;40801;41.924;25.562;2023-05-29T04:16:15;99192.69;;;18.20;85.87
54900;BME280;40801;41.924;25.562;2023-05-29T04:18:41;99195.94;;;18.26;85.09
54900;BME280;40801;41.924;25.562;2023-05-29T04:21:06;99190.84;;;18.24;84.96
54900;BME280;40801;41.924;25.562;2023-05-29T04:23:32;99199.97;;;18.32;85.05
54900;BME280;40801;41.924;25.562;2023-05-29T04:25:57;99198.50;;;18.38;84.48
54900;BME280;40801;41.924;25.562;2023-05-29T04:28:23;99204.41;;;18.40;84.41
54900;BME280;40801;41.924;25.562;2023-05-29T04:30:49;99204.63;;;18.51;83.93
54900;BME280;40801;41.924;25.562;2023-05-29T04:33:16;99205.31;;;18.48;84.08
54900;BME280;40801;41.924;25.562;2023-05-29T04:35:42;99202.94;;;18.46;84.60
54900;BME280;40801;41.924;25.562;2023-05-29T04:38:09;99200.78;;;18.55;83.74
54900;BME280;40801;41.924;25.562;2023-05-29T04:40:34;99207.09;;;18.60;83.28
54900;BME280;40801;41.924;25.562;2023-05-29T04:43:02;99205.16;;;18.60;82.85
54900;BME280;40801;41.924;25.562;2023-05-29T04:45:30;99203.47;;;18.52;83.31
54900;BME280;40801;41.924;25.562;2023-05-29T04:47:55;99206.88;;;18.49;83.42
54900;BME280;40801;41.924;25.562;2023-05-29T04:50:22;99218.75;;;18.56;82.99
54900;BME280;40801;41.924;25.562;2023-05-29T04:52:48;99217.91;;;18.52;83.31
54900;BME280;40801;41.924;25.562;2023-05-29T04:55:13;99231.06;;;18.66;82.45
54900;BME280;40801;41.924;25.562;2023-05-29T04:57:39;99234.66;;;18.51;83.35
54900;BME280;40801;41.924;25.562;2023-05-29T05:00:06;99238.81;;;18.64;82.62
54900;BME280;40801;41.924;25.562;2023-05-29T05:02:38;99234.16;;;18.65;82.68
54900;BME280;40801;41.924;25.562;2023-05-29T05:05:04;99241.31;;;18.73;82.10
54900;BME280;40801;41.924;25.562;2023-05-29T05:07:30;99242.53;;;18.75;81.89
54900;BME280;40801;41.924;25.562;2023-05-29T05:09:55;99248.16;;;18.82;81.90
54900;BME280;40801;41.924;25.562;2023-05-29T05:12:21;99243.66;;;18.94;81.67
54900;BME280;40801;41.924;25.562;2023-05-29T05:14:46;99241.78;;;18.98;82.25
54900;BME280;40801;41.924;25.562;2023-05-29T05:17:11;99248.88;;;19.02;82.40
54900;BME280;40801;41.924;25.562;2023-05-29T05:19:37;99240.56;;;19.18;81.25
54900;BME280;40801;41.924;25.562;2023-05-29T05:22:02;99246.47;;;19.20;80.69
54900;BME280;40801;41.924;25.562;2023-05-29T05:24:28;99239.34;;;19.15;80.43
54900;BME280;40801;41.924;25.562;2023-05-29T05:26:53;99244.75;;;19.12;80.54
54900;BME280;40801;41.924;25.562;2023-05-29T05:29:18;99244.09;;;19.18;80.09
54900;BME280;40801;41.924;25.562;2023-05-29T05:31:45;99248.34;;;19.39;79.47
54900;BME280;40801;41.924;25.562;2023-05-29T05:34:10;99246.53;;;19.50;79.08
54900;BME280;40801;41.924;25.562;2023-05-29T05:36:35;99246.31;;;19.59;78.29
54900;BME280;40801;41.924;25.562;2023-05-29T05:39:02;99247.94;;;19.63;78.09
54900;BME280;40801;41.924;25.562;2023-05-29T05:41:27;99242.00;;;19.58;78.12
54900;BME280;40801;41.924;25.562;2023-05-29T05:43:53;99240.94;;;19.66;77.40
54900;BME280;40801;41.924;25.562;2023-05-29T05:46:18;99244.69;;;19.80;77.42
54900;BME280;40801;41.924;25.562;2023-05-29T05:48:44;99243.34;;;19.97;77.17
54900;BME280;40801;41.924;25.562;2023-05-29T05:51:09;99248.22;;;20.11;76.28
54900;BME280;40801;41.924;25.562;2023-05-29T05:53:35;99255.19;;;20.05;76.02
54900;BME280;40801;41.924;25.562;2023-05-29T05:56:01;99257.31;;;20.19;75.62
54900;BME280;40801;41.924;25.562;2023-05-29T05:58:26;99256.38;;;20.37;75.17
54900;BME280;40801;41.924;25.562;2023-05-29T06:00:52;99250.28;;;20.51;74.53
54900;BME280;40801;41.924;25.562;2023-05-29T06:03:17;99256.63;;;20.55;75.04
54900;BME280;40801;41.924;25.562;2023-05-29T06:05:43;99250.16;;;20.74;73.90
54900;BME280;40801;41.924;25.562;2023-05-29T06:08:08;99251.44;;;20.84;72.86
54900;BME280;40801;41.924;25.562;2023-05-29T06:10:34;99260.72;;;20.72;73.06
54900;BME280;40801;41.924;25.562;2023-05-29T06:12:59;99259.13;;;20.71;72.94
54900;BME280;40801;41.924;25.562;2023-05-29T06:15:25;99260.16;;;20.56;73.61
54900;BME280;40801;41.924;25.562;2023-05-29T06:17:50;99255.34;;;20.83;73.29
54900;BME280;40801;41.924;25.562;2023-05-29T06:20:17;99251.63;;;21.05;72.39
54900;BME280;40801;41.924;25.562;2023-05-29T06:22:42;99254.28;;;20.94;72.38
54900;BME280;40801;41.924;25.562;2023-05-29T06:25:08;99257.09;;;21.01;72.41
54900;BME280;40801;41.924;25.562;2023-05-29T06:27:34;99259.47;;;21.07;72.20
54900;BME280;40801;41.924;25.562;2023-05-29T06:30:00;99261.84;;;21.08;71.64
54900;BME280;40801;41.924;25.562;2023-05-29T06:32:25;99260.84;;;21.23;70.57
54900;BME280;40801;41.924;25.562;2023-05-29T06:34:52;99257.53;;;21.07;71.26
54900;BME280;40801;41.924;25.562;2023-05-29T06:40:01;99265.47;;;21.16;71.33
54900;BME280;40801;41.924;25.562;2023-05-29T06:42:27;99263.59;;;21.23;70.48
54900;BME280;40801;41.924;25.562;2023-05-29T06:44:52;99263.38;;;21.02;70.52
54900;BME280;40801;41.924;25.562;2023-05-29T06:47:18;99257.41;;;20.93;71.13
54900;BME280;40801;41.924;25.562;2023-05-29T06:49:43;99259.34;;;20.89;72.14
54900;BME280;40801;41.924;25.562;2023-05-29T06:52:08;99266.00;;;20.91;71.32
54900;BME280;40801;41.924;25.562;2023-05-29T06:54:34;99262.88;;;20.93;71.32
54900;BME280;40801;41.924;25.562;2023-05-29T06:56:59;99259.88;;;20.68;72.13
54900;BME280;40801;41.924;25.562;2023-05-29T06:59:24;99269.53;;;20.92;71.16
54900;BME280;40801;41.924;25.562;2023-05-29T07:01:50;99261.72;;;20.94;70.62
54900;BME280;40801;41.924;25.562;2023-05-29T07:04:15;99255.09;;;20.98;70.78
54900;BME280;40801;41.924;25.562;2023-05-29T07:06:41;99257.53;;;21.07;70.24
54900;BME280;40801;41.924;25.562;2023-05-29T07:09:06;99253.44;;;21.27;69.59
54900;BME280;40801;41.924;25.562;2023-05-29T07:11:32;99256.34;;;21.45;69.33
54900;BME280;40801;41.924;25.562;2023-05-29T07:13:57;99250.84;;;21.45;68.23
54900;BME280;40801;41.924;25.562;2023-05-29T07:16:23;99255.22;;;21.53;68.50
54900;BME280;40801;41.924;25.562;2023-05-29T07:18:48;99247.53;;;21.77;67.98
54900;BME280;40801;41.924;25.562;2023-05-29T07:21:13;99253.50;;;21.38;68.32
54900;BME280;40801;41.924;25.562;2023-05-29T07:23:39;99245.25;;;21.89;67.26
54900;BME280;40801;41.924;25.562;2023-05-29T07:26:05;99248.19;;;22.25;66.91
54900;BME280;40801;41.924;25.562;2023-05-29T07:28:30;99257.25;;;22.29;66.30
54900;BME280;40801;41.924;25.562;2023-05-29T07:30:55;99252.19;;;22.38;65.21
54900;BME280;40801;41.924;25.562;2023-05-29T07:33:21;99253.00;;;22.42;65.46
54900;BME280;40801;41.924;25.562;2023-05-29T07:35:47;99257.34;;;22.54;65.36
54900;BME280;40801;41.924;25.562;2023-05-29T07:38:12;99256.69;;;22.85;64.93
54900;BME280;40801;41.924;25.562;2023-05-29T07:40:38;99254.72;;;23.11;63.92
54900;BME280;40801;41.924;25.562;2023-05-29T07:43:03;99258.28;;;23.22;63.72
54900;BME280;40801;41.924;25.562;2023-05-29T07:45:29;99255.94;;;23.42;62.28
54900;BME280;40801;41.924;25.562;2023-05-29T07:47:54;99268.50;;;23.39;62.06
54900;BME280;40801;41.924;25.562;2023-05-29T07:50:20;99267.34;;;23.62;61.67
54900;BME280;40801;41.924;25.562;2023-05-29T07:52:45;99267.34;;;23.79;61.02
54900;BME280;40801;41.924;25.562;2023-05-29T07:55:10;99264.16;;;23.92;60.33
54900;BME280;40801;41.924;25.562;2023-05-29T07:57:36;99265.72;;;23.93;60.53
54900;BME280;40801;41.924;25.562;2023-05-29T08:00:02;99263.75;;;24.00;60.53
54900;BME280;40801;41.924;25.562;2023-05-29T08:02:34;99262.59;;;23.91;59.71
54900;BME280;40801;41.924;25.562;2023-05-29T08:04:59;99262.63;;;23.80;60.42
54900;BME280;40801;41.924;25.562;2023-05-29T08:07:24;99262.59;;;23.87;60.01
54900;BME280;40801;41.924;25.562;2023-05-29T08:09:51;99263.75;;;23.90;60.05
54900;BME280;40801;41.924;25.562;2023-05-29T08:12:17;99248.00;;;23.94;58.69
54900;BME280;40801;41.924;25.562;2023-05-29T08:14:42;99250.34;;;24.09;59.45
54900;BME280;40801;41.924;25.562;2023-05-29T08:17:08;99253.06;;;24.17;59.26
54900;BME280;40801;41.924;25.562;2023-05-29T08:19:33;99247.91;;;24.22;58.76
54900;BME280;40801;41.924;25.562;2023-05-29T08:21:59;99240.31;;;24.55;57.56
54900;BME280;40801;41.924;25.562;2023-05-29T08:24:24;99238.81;;;24.43;56.87
54900;BME280;40801;41.924;25.562;2023-05-29T08:26:50;99243.75;;;24.77;57.45
54900;BME280;40801;41.924;25.562;2023-05-29T08:29:15;99242.63;;;24.70;55.94
54900;BME280;40801;41.924;25.562;2023-05-29T08:31:41;99247.47;;;25.15;55.23
54900;BME280;40801;41.924;25.562;2023-05-29T08:34:06;99236.19;;;25.47;54.55
54900;BME280;40801;41.924;25.562;2023-05-29T08:36:33;99247.19;;;25.91;54.22
54900;BME280;40801;41.924;25.562;2023-05-29T08:38:58;99240.38;;;26.68;52.75
54900;BME280;40801;41.924;25.562;2023-05-29T08:41:34;99239.69;;;27.14;50.33
54900;BME280;40801;41.924;25.562;2023-05-29T08:44:04;99238.19;;;27.56;50.90
54900;BME280;40801;41.924;25.562;2023-05-29T08:46:32;99232.25;;;27.34;48.81
54900;BME280;40801;41.924;25.562;2023-05-29T08:49:01;99234.00;;;26.98;49.52
54900;BME280;40801;41.924;25.562;2023-05-29T08:51:31;99221.72;;;27.49;49.61
54900;BME280;40801;41.924;25.562;2023-05-29T08:53:57;99210.31;;;27.67;49.23
54900;BME280;40801;41.924;25.562;2023-05-29T08:56:23;99214.78;;;27.37;49.00
54900;BME280;40801;41.924;25.562;2023-05-29T08:58:48;99215.50;;;27.65;48.14
54900;BME280;40801;41.924;25.562;2023-05-29T09:01:16;99214.94;;;27.03;48.29
54900;BME280;40801;41.924;25.562;2023-05-29T09:03:42;99216.09;;;27.06;48.80
54900;BME280;40801;41.924;25.562;2023-05-29T09:06:07;99203.19;;;26.96;49.50
54900;BME280;40801;41.924;25.562;2023-05-29T09:08:34;99201.84;;;27.31;50.00
54900;BME280;40801;41.924;25.562;2023-05-29T09:11:00;99207.00;;;27.05;49.41
54900;BME280;40801;41.924;25.562;2023-05-29T09:13:25;99201.41;;;26.82;49.85
54900;BME280;40801;41.924;25.562;2023-05-29T09:15:57;99196.56;;;26.90;47.81
54900;BME280;40801;41.924;25.562;2023-05-29T09:18:23;99192.38;;;27.52;49.82
54900;BME280;40801;41.924;25.562;2023-05-29T09:20:48;99185.44;;;28.23;48.68
54900;BME280;40801;41.924;25.562;2023-05-29T09:23:13;99179.44;;;28.64;46.12
54900;BME280;40801;41.924;25.562;2023-05-29T09:25:40;99189.75;;;28.63;46.31
54900;BME280;40801;41.924;25.562;2023-05-29T09:28:08;99180.53;;;29.03;46.27
54900;BME280;40801;41.924;25.562;2023-05-29T09:30:35;99174.59;;;29.33;45.36
54900;BME280;40801;41.924;25.562;2023-05-29T09:33:01;99187.53;;;29.98;44.71
54900;BME280;40801;41.924;25.562;2023-05-29T09:35:33;99177.72;;;30.09;42.24
54900;BME280;40801;41.924;25.562;2023-05-29T09:38:00;99178.88;;;30.37;42.84
54900;BME280;40801;41.924;25.562;2023-05-29T09:40:26;99175.97;;;31.04;41.74
54900;BME280;40801;41.924;25.562;2023-05-29T09:42:51;99176.66;;;31.43;40.61
54900;BME280;40801;41.924;25.562;2023-05-29T09:45:17;99179.31;;;31.47;39.90
54900;BME280;40801;41.924;25.562;2023-05-29T09:47:43;99179.09;;;30.94;40.94
54900;BME280;40801;41.924;25.562;2023-05-29T09:50:18;99179.31;;;30.87;37.37
54900;BME280;40801;41.924;25.562;2023-05-29T09:52:47;99180.44;;;30.51;40.13
54900;BME280;40801;41.924;25.562;2023-05-29T09:55:15;99180.09;;;31.00;39.96
54900;BME280;40801;41.924;25.562;2023-05-29T09:57:46;99170.84;;;30.39;38.42
54900;BME280;40801;41.924;25.562;2023-05-29T10:00:13;99172.28;;;30.31;39.83
54900;BME280;40801;41.924;25.562;2023-05-29T10:02:39;99175.31;;;30.49;40.60
54900;BME280;40801;41.924;25.562;2023-05-29T10:05:06;99175.38;;;30.20;39.84
54900;BME280;40801;41.924;25.562;2023-05-29T10:07:37;99163.69;;;28.93;40.43
54900;BME280;40801;41.924;25.562;2023-05-29T10:10:06;99169.19;;;28.61;41.47
54900;BME280;40801;41.924;25.562;2023-05-29T10:12:38;99165.50;;;29.00;41.93
54900;BME280;40801;41.924;25.562;2023-05-29T10:15:07;99171.22;;;29.09;42.53
54900;BME280;40801;41.924;25.562;2023-05-29T10:17:38;99165.06;;;29.02;41.41
54900;BME280;40801;41.924;25.562;2023-05-29T10:20:05;99181.09;;;28.78;42.10
54900;BME280;40801;41.924;25.562;2023-05-29T10:22:38;99168.91;;;28.19;42.81
54900;BME280;40801;41.924;25.562;2023-05-29T10:25:07;99172.09;;;28.18;43.04
54900;BME280;40801;41.924;25.562;2023-05-29T10:27:34;99176.59;;;28.12;43.57
54900;BME280;40801;41.924;25.562;2023-05-29T10:30:09;99193.97;;;27.72;43.84
54900;BME280;40801;41.924;25.562;2023-05-29T10:38:15;99175.28;;;27.10;46.22
54900;BME280;40801;41.924;25.562;2023-05-29T10:40:42;99176.88;;;26.84;47.11
54900;BME280;40801;41.924;25.562;2023-05-29T10:43:08;99180.22;;;26.99;47.50
54900;BME280;40801;41.924;25.562;2023-05-29T10:53:06;99223.63;;;26.48;49.57
54900;BME280;40801;41.924;25.562;2023-05-29T10:55:39;99241.94;;;26.04;47.94
54900;BME280;40801;41.924;25.562;2023-05-29T10:58:10;99249.59;;;25.45;47.89
54900;BME280;40801;41.924;25.562;2023-05-29T11:00:42;99261.72;;;24.29;53.33
54900;BME280;40801;41.924;25.562;2023-05-29T11:03:09;99259.88;;;23.44;55.35
54900;BME280;40801;41.924;25.562;2023-05-29T11:05:59;99253.41;;;22.51;60.33
54900;BME280;40801;41.924;25.562;2023-05-29T11:11:15;99251.94;;;21.37;61.70
54900;BME280;40801;41.924;25.562;2023-05-29T11:13:57;99246.06;;;20.94;64.98
54900;BME280;40801;41.924;25.562;2023-05-29T11:18:52;99232.06;;;20.32;67.60
54900;BME280;40801;41.924;25.562;2023-05-29T11:21:33;99239.31;;;20.18;68.75
54900;BME280;40801;41.924;25.562;2023-05-29T11:24:00;99260.44;;;19.91;71.35
54900;BME280;40801;41.924;25.562;2023-05-29T11:26:29;99263.59;;;19.93;71.10
54900;BME280;40801;41.924;25.562;2023-05-29T11:29:13;99272.19;;;19.91;70.81
54900;BME280;40801;41.924;25.562;2023-05-29T11:31:40;99277.47;;;19.77;71.82
54900;BME280;40801;41.924;25.562;2023-05-29T11:34:09;99287.09;;;19.67;74.44
54900;BME280;40801;41.924;25.562;2023-05-29T11:36:36;99284.56;;;19.55;75.86
54900;BME280;40801;41.924;25.562;2023-05-29T11:39:02;99279.78;;;19.52;75.32
54900;BME280;40801;41.924;25.562;2023-05-29T11:41:29;99274.94;;;19.42;75.32
54900;BME280;40801;41.924;25.562;2023-05-29T11:43:58;99269.34;;;19.35;75.98
54900;BME280;40801;41.924;25.562;2023-05-29T11:46:24;99269.38;;;19.12;80.63
54900;BME280;40801;41.924;25.562;2023-05-29T11:48:51;99268.75;;;19.22;76.27
54900;BME280;40801;41.924;25.562;2023-05-29T11:51:17;99263.28;;;19.22;77.48
54900;BME280;40801;41.924;25.562;2023-05-29T11:53:43;99258.47;;;19.38;75.90
54900;BME280;40801;41.924;25.562;2023-05-29T11:56:11;99248.38;;;19.42;76.02
54900;BME280;40801;41.924;25.562;2023-05-29T11:58:38;99245.69;;;19.46;77.31
54900;BME280;40801;41.924;25.562;2023-05-29T12:01:04;99243.81;;;19.50;78.24
54900;BME280;40801;41.924;25.562;2023-05-29T12:03:36;99249.34;;;19.54;78.10
54900;BME280;40801;41.924;25.562;2023-05-29T12:06:02;99248.50;;;19.49;77.38
54900;BME280;40801;41.924;25.562;2023-05-29T12:08:28;99250.34;;;19.42;77.30
54900;BME280;40801;41.924;25.562;2023-05-29T12:10:53;99246.66;;;19.34;78.08
54900;BME280;40801;41.924;25.562;2023-05-29T12:13:19;99249.59;;;19.45;76.45
54900;BME280;40801;41.924;25.562;2023-05-29T12:15:47;99260.44;;;19.38;76.82
54900;BME280;40801;41.924;25.562;2023-05-29T12:18:14;99256.78;;;19.30;78.11
54900;BME280;40801;41.924;25.562;2023-05-29T12:20:40;99261.44;;;19.30;78.32
54900;BME280;40801;41.924;25.562;2023-05-29T12:23:05;99258.91;;;19.40;77.57
54900;BME280;40801;41.924;25.562;2023-05-29T12:25:33;99257.47;;;19.50;77.34
54900;BME280;40801;41.924;25.562;2023-05-29T12:28:00;99250.66;;;19.63;76.63
54900;BME280;40801;41.924;25.562;2023-05-29T12:30:25;99257.44;;;19.69;77.11
54900;BME280;40801;41.924;25.562;2023-05-29T12:32:52;99235.47;;;19.66;77.93
54900;BME280;40801;41.924;25.562;2023-05-29T12:35:25;99235.00;;;19.60;80.26
54900;BME280;40801;41.924;25.562;2023-05-29T12:40:24;99236.88;;;19.83;77.57
54900;BME280;40801;41.924;25.562;2023-05-29T12:43:16;99234.25;;;19.90;79.63
54900;BME280;40801;41.924;25.562;2023-05-29T12:45:41;99216.03;;;20.01;78.89
54900;BME280;40801;41.924;25.562;2023-05-29T12:48:08;99215.78;;;20.13;77.98
54900;BME280;40801;41.924;25.562;2023-05-29T12:50:38;99211.59;;;20.23;77.80
54900;BME280;40801;41.924;25.562;2023-05-29T12:53:05;99217.84;;;20.23;81.66
54900;BME280;40801;41.924;25.562;2023-05-29T12:55:32;99207.81;;;20.34;79.28
54900;BME280;40801;41.924;25.562;2023-05-29T12:57:59;99207.75;;;20.61;78.16
54900;BME280;40801;41.924;25.562;2023-05-29T13:00:25;99213.28;;;20.64;78.61
54900;BME280;40801;41.924;25.562;2023-05-29T13:02:51;99212.34;;;20.90;78.09
54900;BME280;40801;41.924;25.562;2023-05-29T13:05:17;99208.69;;;21.20;76.85
54900;BME280;40801;41.924;25.562;2023-05-29T13:07:45;99210.88;;;21.44;76.69
54900;BME280;40801;41.924;25.562;2023-05-29T13:10:11;99200.06;;;21.69;76.02
54900;BME280;40801;41.924;25.562;2023-05-29T13:12:36;99194.28;;;21.95;74.36
54900;BME280;40801;41.924;25.562;2023-05-29T13:15:02;99198.75;;;22.21;73.43
54900;BME280;40801;41.924;25.562;2023-05-29T13:17:27;99196.72;;;22.04;73.57
54900;BME280;40801;41.924;25.562;2023-05-29T13:19:53;99193.50;;;21.95;73.29
54900;BME280;40801;41.924;25.562;2023-05-29T13:22:18;99202.94;;;21.98;74.74